createdAt,value
2023-05-05T00:02:29.368Z,5.63
2023-05-05T00:05:00.958Z,5.20
2023-05-05T00:07:36.037Z,7.25
2023-05-05T00:12:39.561Z,4.75
2023-05-05T00:15:11.302Z,5.00
2023-05-05T00:17:42.936Z,4.65
2023-05-05T00:20:14.969Z,5.20
2023-05-05T00:22:46.501Z,6.35
2023-05-05T00:25:18.132Z,5.53
2023-05-05T00:27:49.762Z,7.03
2023-05-05T00:30:21.716Z,5.45
2023-05-05T00:32:54.781Z,5.28
2023-05-05T00:35:27.292Z,3.65
2023-05-05T00:37:59.581Z,5.15
2023-05-05T00:40:33.963Z,4.20
2023-05-05T00:43:05.604Z,4.10
2023-05-05T00:45:39.107Z,4.88
2023-05-05T00:48:11.153Z,5.38
2023-05-05T00:50:43.974Z,4.40
2023-05-05T00:53:15.805Z,4.35
2023-05-05T00:55:47.475Z,4.20
2023-05-05T00:58:19.043Z,6.68
2023-05-05T01:00:50.669Z,4.53
2023-05-05T01:03:22.340Z,6.50
2023-05-05T01:06:15.658Z,5.35
2023-05-05T01:09:08.950Z,5.63
2023-05-05T01:11:57.945Z,5.25
2023-05-05T01:15:03.288Z,3.70
2023-05-05T01:17:58.800Z,6.30
2023-05-05T01:20:49.493Z,5.13
2023-05-05T01:23:50.391Z,5.28
2023-05-05T01:27:00.506Z,5.03
2023-05-05T01:30:03.401Z,5.90
2023-05-05T01:32:43.700Z,4.97
2023-05-05T01:35:20.727Z,6.53
2023-05-05T01:38:05.720Z,5.93
2023-05-05T01:41:12.343Z,8.77
2023-05-05T01:43:48.507Z,5.13
2023-05-05T01:46:23.761Z,5.82
2023-05-05T01:48:56.982Z,5.05
2023-05-05T01:51:29.504Z,4.90
2023-05-05T01:54:05.682Z,4.78
2023-05-05T01:56:41.818Z,5.07
2023-05-05T01:59:13.901Z,4.75
2023-05-05T02:01:48.701Z,5.10
2023-05-05T02:04:22.907Z,5.10
2023-05-05T02:06:56.441Z,4.38
2023-05-05T02:09:34.305Z,6.18
2023-05-05T02:12:08.188Z,4.60
2023-05-05T02:14:42.485Z,5.25
2023-05-05T02:17:17.033Z,7.18
2023-05-05T02:19:52.519Z,5.68
2023-05-05T02:22:24.360Z,5.07
2023-05-05T02:24:59.069Z,5.38
2023-05-05T02:27:33.980Z,6.00
2023-05-05T02:30:11.145Z,7.03
2023-05-05T02:32:56.666Z,4.78
2023-05-05T02:35:41.033Z,5.28
2023-05-05T02:38:18.622Z,4.68
2023-05-05T02:40:59.287Z,5.00
2023-05-05T02:43:31.989Z,5.55
2023-05-05T02:46:03.606Z,5.70
2023-05-05T02:48:43.124Z,4.85
2023-05-05T02:51:14.739Z,5.63
2023-05-05T02:53:46.600Z,5.63
2023-05-05T02:56:49.027Z,4.72
2023-05-05T03:00:07.377Z,5.22
2023-05-05T03:03:03.095Z,5.28
2023-05-05T03:05:45.895Z,4.32
2023-05-05T03:08:28.232Z,5.05
2023-05-05T03:11:06.510Z,5.97
2023-05-05T03:13:44.187Z,5.88
2023-05-05T03:16:18.942Z,5.60
2023-05-05T03:18:52.480Z,5.70
2023-05-05T03:21:24.646Z,5.43
2023-05-05T03:23:58.273Z,6.80
2023-05-05T03:26:29.815Z,6.63
2023-05-05T03:29:01.401Z,5.90
2023-05-05T03:31:33.513Z,7.90
2023-05-05T03:34:06.134Z,5.90
2023-05-05T03:36:38.822Z,6.75
2023-05-05T03:39:10.785Z,5.13
2023-05-05T03:41:42.470Z,7.03
2023-05-05T03:44:14.100Z,7.35
2023-05-05T03:46:45.766Z,7.97
2023-05-05T03:49:17.323Z,5.53
2023-05-05T03:51:48.973Z,6.13
2023-05-05T03:54:20.593Z,6.25
2023-05-05T03:56:52.253Z,9.35
2023-05-05T03:59:23.764Z,7.93
2023-05-05T04:01:55.418Z,6.03
2023-05-05T04:04:27.134Z,7.28
2023-05-05T04:06:58.717Z,6.28
2023-05-05T04:09:30.384Z,6.75
2023-05-05T04:12:03.110Z,6.72
2023-05-05T04:14:34.748Z,7.50
2023-05-05T04:17:06.505Z,6.57
2023-05-05T04:19:40.214Z,7.82
2023-05-05T04:22:13.900Z,8.02
2023-05-05T04:24:45.604Z,6.57
2023-05-05T04:27:17.239Z,8.40
2023-05-05T04:29:48.932Z,5.90
2023-05-05T04:32:20.842Z,6.90
2023-05-05T04:34:52.738Z,8.10
2023-05-05T04:37:25.657Z,6.88
2023-05-05T04:39:57.262Z,8.18
2023-05-05T04:42:28.965Z,7.85
2023-05-05T04:45:04.357Z,9.35
2023-05-05T04:47:40.622Z,8.05
2023-05-05T04:50:12.478Z,9.30
2023-05-05T04:52:44.073Z,9.38
2023-05-05T04:55:15.731Z,7.63
2023-05-05T04:57:47.337Z,9.57
2023-05-05T05:00:19.112Z,7.47
2023-05-05T05:02:50.745Z,7.25
2023-05-05T05:05:22.668Z,7.28
2023-05-05T05:07:54.322Z,9.13
2023-05-05T05:10:25.920Z,6.50
2023-05-05T05:12:57.533Z,8.10
2023-05-05T05:15:29.086Z,7.72
2023-05-05T05:18:00.807Z,5.85
2023-05-05T05:20:32.398Z,6.22
2023-05-05T05:23:04.610Z,5.80
2023-05-05T05:25:36.181Z,8.68
2023-05-05T05:28:10.768Z,7.53
2023-05-05T05:30:42.587Z,8.82
2023-05-05T05:33:14.524Z,6.15
2023-05-05T05:35:46.470Z,5.85
2023-05-05T05:38:18.102Z,8.23
2023-05-05T05:40:49.720Z,6.93
2023-05-05T05:43:21.332Z,5.40
2023-05-05T05:45:53.000Z,4.10
2023-05-05T05:48:28.413Z,3.70
2023-05-05T05:51:00.202Z,4.90
2023-05-05T05:53:31.982Z,4.68
2023-05-05T05:56:04.244Z,5.82
2023-05-05T05:58:35.820Z,4.28
2023-05-05T06:01:07.422Z,4.13
2023-05-05T06:03:39.021Z,3.85
2023-05-05T06:06:12.984Z,5.05
2023-05-05T06:08:44.652Z,3.10
2023-05-05T06:11:16.208Z,6.63
2023-05-05T06:13:47.834Z,7.30
2023-05-05T06:16:19.376Z,4.45
2023-05-05T06:18:51.025Z,4.97
2023-05-05T06:21:22.664Z,7.10
2023-05-05T06:23:54.260Z,4.35
2023-05-05T06:26:28.444Z,2.97
2023-05-05T06:29:00.065Z,2.47
2023-05-05T06:31:31.723Z,3.95
2023-05-05T06:34:03.616Z,5.25
2023-05-05T06:36:35.757Z,5.15
2023-05-05T06:39:07.749Z,7.72
2023-05-05T06:41:39.339Z,5.68
2023-05-05T06:44:11.409Z,8.45
2023-05-05T06:46:43.789Z,4.93
2023-05-05T06:49:15.518Z,5.25
2023-05-05T06:51:47.081Z,9.10
2023-05-05T06:54:18.699Z,6.28
2023-05-05T06:56:50.320Z,6.22
2023-05-05T06:59:24.222Z,6.65
2023-05-05T07:01:59.574Z,7.10
2023-05-05T07:04:31.657Z,13.40
2023-05-05T07:07:03.308Z,7.50
2023-05-05T07:09:34.923Z,7.95
2023-05-05T07:12:14.714Z,6.03
2023-05-05T07:14:47.001Z,10.93
2023-05-05T07:17:18.810Z,7.25
2023-05-05T07:19:51.401Z,9.35
2023-05-05T07:22:22.962Z,8.13
2023-05-05T07:24:54.568Z,9.70
2023-05-05T07:27:26.562Z,5.72
2023-05-05T07:29:58.498Z,5.90
2023-05-05T07:32:30.117Z,6.93
2023-05-05T07:35:01.802Z,6.72
2023-05-05T07:37:33.479Z,6.85
2023-05-05T07:40:06.401Z,8.48
2023-05-05T07:42:38.238Z,7.53
2023-05-05T07:45:10.318Z,7.97
2023-05-05T07:47:41.902Z,10.40
2023-05-05T07:50:13.674Z,7.80
2023-05-05T07:52:49.874Z,5.07
2023-05-05T07:55:27.886Z,5.32
2023-05-05T07:57:59.443Z,6.47
2023-05-05T08:00:31.010Z,6.25
2023-05-05T08:03:02.617Z,4.85
2023-05-05T08:05:34.272Z,8.02
2023-05-05T08:08:06.994Z,6.22
2023-05-05T08:10:38.675Z,5.03
2023-05-05T08:13:10.288Z,5.15
2023-05-05T08:15:41.950Z,5.25
2023-05-05T08:18:14.692Z,4.22
2023-05-05T08:20:46.570Z,5.55
2023-05-05T08:23:18.103Z,5.60
2023-05-05T08:25:49.875Z,4.70
2023-05-05T08:28:21.404Z,5.20
2023-05-05T08:30:53.044Z,5.18
2023-05-05T08:33:25.205Z,4.80
2023-05-05T08:35:56.924Z,5.70
2023-05-05T08:38:30.891Z,6.82
2023-05-05T08:41:02.817Z,6.53
2023-05-05T08:43:35.938Z,5.07
2023-05-05T08:46:12.273Z,5.53
2023-05-05T08:48:45.974Z,5.93
2023-05-05T08:51:19.805Z,5.78
2023-05-05T08:53:54.245Z,4.40
2023-05-05T08:56:31.138Z,8.55
2023-05-05T08:59:02.964Z,5.00
2023-05-05T09:01:36.135Z,6.35
2023-05-05T09:04:16.632Z,5.10
2023-05-05T09:06:48.273Z,6.40
2023-05-05T09:09:20.611Z,5.25
2023-05-05T09:11:53.738Z,3.63
2023-05-05T09:14:25.590Z,8.80
2023-05-05T09:16:59.243Z,7.63
2023-05-05T09:19:30.943Z,4.78
2023-05-05T09:22:02.518Z,4.97
2023-05-05T09:25:10.150Z,4.43
2023-05-05T09:27:49.391Z,6.82
2023-05-05T09:30:26.115Z,6.07
2023-05-05T09:32:57.725Z,5.63
2023-05-05T09:35:47.287Z,8.35
2023-05-05T09:38:20.816Z,6.43
2023-05-05T09:40:54.105Z,6.80
2023-05-05T09:43:25.687Z,5.85
2023-05-05T09:46:08.185Z,5.72
2023-05-05T09:48:43.081Z,5.60
2023-05-05T09:51:14.915Z,12.23
2023-05-05T09:53:46.521Z,6.60
2023-05-05T09:56:23.431Z,5.10
2023-05-05T09:59:09.423Z,7.15
2023-05-05T10:01:43.414Z,5.45
2023-05-05T10:04:28.561Z,4.88
2023-05-05T10:07:00.327Z,6.00
2023-05-05T10:09:32.733Z,5.63
2023-05-05T10:12:06.028Z,7.40
2023-05-05T10:14:37.800Z,5.75
2023-05-05T10:17:10.189Z,4.93
2023-05-05T10:19:42.726Z,6.03
2023-05-05T10:22:14.679Z,5.50
2023-05-05T10:25:01.732Z,5.40
2023-05-05T10:27:43.660Z,8.27
2023-05-05T10:30:24.481Z,6.45
2023-05-05T10:33:30.105Z,5.35
2023-05-05T10:36:05.361Z,5.45
2023-05-05T10:38:38.142Z,6.45
2023-05-05T10:41:11.564Z,5.28
2023-05-05T10:43:46.377Z,5.70
2023-05-05T10:46:18.342Z,3.83
2023-05-05T10:49:04.312Z,5.75
2023-05-05T10:52:30.820Z,6.15
2023-05-05T10:55:16.205Z,7.88
2023-05-05T10:57:53.567Z,4.95
2023-05-05T11:00:40.485Z,4.57
2023-05-05T11:03:18.397Z,7.53
2023-05-05T11:06:07.931Z,7.28
2023-05-05T11:08:44.264Z,5.45
2023-05-05T11:11:16.194Z,4.45
2023-05-05T11:14:07.762Z,5.65
2023-05-05T11:16:48.229Z,4.88
2023-05-05T11:19:46.091Z,4.93
2023-05-05T11:22:17.803Z,4.38
2023-05-05T11:24:49.362Z,6.05
2023-05-05T11:27:21.128Z,6.15
2023-05-05T11:30:04.667Z,5.97
2023-05-05T11:32:36.443Z,5.10
2023-05-05T11:35:08.175Z,6.47
2023-05-05T11:37:39.988Z,6.50
2023-05-05T11:40:42.816Z,6.30
2023-05-05T11:43:20.681Z,4.88
2023-05-05T11:46:19.560Z,3.88
2023-05-05T11:51:25.422Z,4.20
2023-05-05T11:53:58.501Z,5.45
2023-05-05T11:56:30.782Z,3.90
2023-05-05T11:59:20.543Z,3.72
2023-05-05T12:01:52.796Z,8.07
2023-05-05T12:04:24.636Z,3.08
2023-05-05T12:06:58.507Z,2.90
2023-05-05T12:09:30.143Z,4.97
2023-05-05T12:12:02.730Z,5.03
2023-05-05T12:14:34.533Z,4.43
2023-05-05T12:17:12.647Z,3.50
2023-05-05T12:19:53.396Z,6.50
2023-05-05T12:22:26.788Z,5.53
2023-05-05T12:25:01.568Z,7.50
2023-05-05T12:27:36.476Z,5.78
2023-05-05T12:30:19.588Z,4.65
2023-05-05T12:33:03.108Z,3.65
2023-05-05T12:35:35.196Z,4.18
2023-05-05T12:38:07.242Z,5.15
2023-05-05T12:40:49.712Z,3.30
2023-05-05T12:43:31.919Z,3.38
2023-05-05T12:46:12.031Z,3.28
2023-05-05T12:48:46.398Z,4.68
2023-05-05T12:51:23.067Z,12.00
2023-05-05T12:54:12.041Z,2.67
2023-05-05T12:56:47.159Z,4.25
2023-05-05T12:59:21.834Z,3.92
2023-05-05T13:01:54.879Z,4.32
2023-05-05T13:04:28.522Z,7.50
2023-05-05T13:07:15.017Z,5.43
2023-05-05T13:09:50.652Z,5.13
2023-05-05T13:12:25.326Z,4.28
2023-05-05T13:14:56.990Z,9.05
2023-05-05T13:17:28.726Z,3.40
2023-05-05T13:20:02.363Z,3.97
2023-05-05T13:22:33.925Z,6.35
2023-05-05T13:25:06.145Z,3.15
2023-05-05T13:27:37.886Z,3.53
2023-05-05T13:30:10.399Z,3.15
2023-05-05T13:32:42.286Z,1.80
2023-05-05T13:35:16.008Z,3.75
2023-05-05T13:37:48.538Z,2.15
2023-05-05T13:40:20.087Z,2.65
2023-05-05T13:42:51.784Z,3.28
2023-05-05T13:45:23.302Z,1.83
2023-05-05T13:47:54.893Z,2.05
2023-05-05T13:50:26.563Z,2.05
2023-05-05T13:52:58.142Z,2.97
2023-05-05T13:55:30.027Z,4.10
2023-05-05T13:58:01.636Z,1.48
2023-05-05T14:00:34.649Z,4.15
2023-05-05T14:03:06.322Z,5.53
2023-05-05T14:05:44.587Z,2.95
2023-05-05T14:08:16.516Z,2.25
2023-05-05T14:10:49.541Z,2.08
2023-05-05T14:13:23.019Z,3.78
2023-05-05T14:15:54.631Z,2.88
2023-05-05T14:18:26.285Z,3.00
2023-05-05T14:20:57.907Z,3.60
2023-05-05T14:23:32.644Z,3.75
2023-05-05T14:26:04.262Z,1.40
2023-05-05T14:28:35.953Z,2.67
2023-05-05T14:31:07.653Z,2.33
2023-05-05T14:33:39.321Z,3.75
2023-05-05T14:36:11.125Z,2.63
2023-05-05T14:38:43.020Z,1.80
2023-05-05T14:41:14.806Z,3.03
2023-05-05T14:43:46.337Z,9.05
2023-05-05T14:46:21.170Z,3.17
2023-05-05T14:48:55.857Z,3.22
2023-05-05T14:51:27.701Z,3.10
2023-05-05T14:53:59.529Z,3.72
2023-05-05T14:56:31.155Z,3.28
2023-05-05T14:59:02.706Z,4.43
2023-05-05T15:01:34.374Z,2.65
2023-05-05T15:04:06.331Z,2.60
2023-05-05T15:06:37.990Z,4.10
2023-05-05T15:09:09.628Z,6.15
2023-05-05T15:11:41.418Z,4.97
2023-05-05T15:14:15.398Z,2.90
2023-05-05T15:16:47.013Z,3.03
2023-05-05T15:19:18.596Z,2.58
2023-05-05T15:21:53.271Z,6.30
2023-05-05T15:24:24.935Z,2.67
2023-05-05T15:26:57.532Z,1.75
2023-05-05T15:29:29.132Z,1.20
2023-05-05T15:32:01.158Z,1.23
2023-05-05T15:34:32.863Z,3.00
2023-05-05T15:37:04.717Z,10.00
2023-05-05T15:39:36.657Z,3.45
2023-05-05T15:42:08.303Z,3.22
2023-05-05T15:44:39.908Z,2.80
2023-05-05T15:47:11.536Z,2.70
2023-05-05T15:49:43.233Z,2.30
2023-05-05T15:52:14.956Z,2.30
2023-05-05T15:54:46.542Z,4.22
2023-05-05T15:57:18.256Z,1.80
2023-05-05T15:59:53.672Z,1.92
2023-05-05T16:02:25.598Z,2.05
2023-05-05T16:04:57.240Z,1.92
2023-05-05T16:07:28.968Z,2.22
2023-05-05T16:10:00.631Z,5.68
2023-05-05T16:12:32.295Z,4.22
2023-05-05T16:15:04.346Z,4.40
2023-05-05T16:17:39.525Z,3.20
2023-05-05T16:20:11.761Z,3.05
2023-05-05T16:22:43.366Z,2.53
2023-05-05T16:25:18.312Z,3.17
2023-05-05T16:27:52.254Z,6.07
2023-05-05T16:30:24.047Z,2.78
2023-05-05T16:32:55.707Z,2.75
2023-05-05T16:35:27.475Z,2.95
2023-05-05T16:38:01.988Z,1.75
2023-05-05T16:40:36.346Z,1.08
2023-05-05T16:43:08.080Z,2.03
2023-05-05T16:45:39.631Z,2.72
2023-05-05T16:48:11.450Z,1.75
2023-05-05T16:50:47.218Z,3.42
2023-05-05T16:53:18.926Z,1.10
2023-05-05T16:55:54.814Z,1.65
2023-05-05T16:58:26.859Z,2.03
2023-05-05T17:00:58.523Z,3.03
2023-05-05T17:03:30.398Z,1.80
2023-05-05T17:06:02.080Z,1.15
2023-05-05T17:08:34.316Z,2.83
2023-05-05T17:11:10.985Z,3.38
2023-05-05T17:13:46.130Z,2.17
2023-05-05T17:16:18.568Z,4.45
2023-05-05T17:18:50.142Z,0.60
2023-05-05T17:21:22.576Z,2.47
2023-05-05T17:23:54.183Z,3.58
2023-05-05T17:26:25.956Z,2.60
2023-05-05T17:28:57.576Z,2.80
2023-05-05T17:31:29.216Z,0.85
2023-05-05T17:34:00.946Z,2.10
2023-05-05T17:36:33.550Z,1.70
2023-05-05T17:39:05.964Z,1.75
2023-05-05T17:41:40.129Z,3.80
2023-05-05T17:44:11.842Z,3.05
2023-05-05T17:46:43.690Z,0.73
2023-05-05T17:49:15.427Z,0.93
2023-05-05T17:51:47.182Z,3.42
2023-05-05T17:54:19.060Z,5.97
2023-05-05T17:56:50.685Z,1.00
2023-05-05T17:59:26.072Z,0.85
2023-05-05T18:01:57.704Z,0.85
2023-05-05T18:04:31.491Z,2.30
2023-05-05T18:07:06.359Z,2.58
2023-05-05T18:12:11.292Z,1.55
2023-05-05T18:14:43.153Z,2.10
2023-05-05T18:17:14.795Z,2.40
2023-05-05T18:19:49.106Z,2.20
2023-05-05T18:22:21.883Z,1.17
2023-05-05T18:24:58.934Z,1.70
2023-05-05T18:27:32.703Z,2.03
2023-05-05T18:30:05.307Z,2.97
2023-05-05T18:32:37.490Z,2.88
2023-05-05T18:35:10.060Z,1.40
2023-05-05T18:37:42.287Z,1.52
2023-05-05T18:40:14.164Z,1.98
2023-05-05T18:42:45.788Z,1.55
2023-05-05T18:45:17.537Z,1.20
2023-05-05T18:47:49.266Z,2.35
2023-05-05T18:50:20.928Z,1.77
2023-05-05T18:52:52.616Z,1.10
2023-05-05T18:55:24.312Z,3.25
2023-05-05T18:57:55.945Z,1.88
2023-05-05T19:00:27.604Z,3.10
2023-05-05T19:02:59.348Z,1.85
2023-05-05T19:05:34.061Z,3.35
2023-05-05T19:08:05.840Z,1.88
2023-05-05T19:10:40.672Z,2.35
2023-05-05T19:13:12.880Z,1.80
2023-05-05T19:15:48.301Z,2.05
2023-05-05T19:18:24.704Z,3.03
2023-05-05T19:20:56.415Z,2.95
2023-05-05T19:23:32.005Z,2.70
2023-05-05T19:26:04.517Z,4.85
2023-05-05T19:28:36.189Z,3.92
2023-05-05T19:31:07.745Z,2.30
2023-05-05T19:33:42.348Z,2.22
2023-05-05T19:36:14.063Z,1.83
2023-05-05T19:38:46.725Z,4.60
2023-05-05T19:41:18.522Z,2.78
2023-05-05T19:43:50.110Z,3.88
2023-05-05T19:46:23.773Z,2.60
2023-05-05T19:48:58.155Z,3.28
2023-05-05T19:51:30.044Z,2.45
2023-05-05T19:54:01.674Z,4.10
2023-05-05T19:56:33.343Z,3.90
2023-05-05T19:59:06.344Z,3.28
2023-05-05T20:01:41.436Z,3.05
2023-05-05T20:04:16.027Z,3.97
2023-05-05T20:06:47.618Z,2.28
2023-05-05T20:09:19.267Z,2.97
2023-05-05T20:11:53.558Z,3.13
2023-05-05T20:14:25.617Z,3.03
2023-05-05T20:16:57.183Z,3.08
2023-05-05T20:19:28.879Z,2.70
2023-05-05T20:22:02.545Z,3.38
2023-05-05T20:24:34.195Z,3.88
2023-05-05T20:27:06.979Z,3.38
2023-05-05T20:29:38.574Z,3.63
2023-05-05T20:32:10.243Z,2.65
2023-05-05T20:34:41.785Z,3.92
2023-05-05T20:37:14.003Z,3.67
2023-05-05T20:39:47.308Z,3.38
2023-05-05T20:42:19.811Z,2.33
2023-05-05T20:44:51.437Z,3.53
2023-05-05T20:47:23.056Z,1.95
2023-05-05T20:49:54.709Z,3.65
2023-05-05T20:52:26.272Z,2.72
2023-05-05T20:54:57.944Z,2.53
2023-05-05T20:57:29.558Z,2.47
2023-05-05T21:00:01.196Z,2.63
2023-05-05T21:02:32.857Z,3.20
2023-05-05T21:05:08.089Z,4.20
2023-05-05T21:07:39.945Z,5.00
2023-05-05T21:10:11.883Z,5.07
2023-05-05T21:12:43.692Z,4.97
2023-05-05T21:15:16.692Z,5.15
2023-05-05T21:17:48.512Z,4.70
2023-05-05T21:20:20.334Z,5.85
2023-05-05T21:22:51.935Z,6.50
2023-05-05T21:25:24.273Z,3.80
2023-05-05T21:27:56.271Z,5.50
2023-05-05T21:30:28.081Z,3.22
2023-05-05T21:33:00.152Z,2.97
2023-05-05T21:35:31.901Z,6.30
2023-05-05T21:38:03.635Z,4.38
2023-05-05T21:40:35.367Z,5.22
2023-05-05T21:43:07.006Z,4.38
2023-05-05T21:45:39.157Z,3.83
2023-05-05T21:48:10.796Z,4.20
2023-05-05T21:50:43.051Z,4.97
2023-05-05T21:53:14.701Z,4.45
2023-05-05T21:55:46.471Z,4.53
2023-05-05T21:58:18.034Z,5.63
2023-05-05T22:00:50.133Z,6.97
2023-05-05T22:03:21.765Z,4.47
2023-05-05T22:05:53.464Z,3.65
2023-05-05T22:08:25.087Z,4.80
2023-05-05T22:10:56.709Z,4.40
2023-05-05T22:13:28.304Z,5.18
2023-05-05T22:15:59.990Z,5.60
2023-05-05T22:18:35.685Z,5.50
2023-05-05T22:21:07.342Z,5.22
2023-05-05T22:23:41.477Z,4.47
2023-05-05T22:26:13.119Z,5.40
2023-05-05T22:28:44.713Z,7.22
2023-05-05T22:31:16.802Z,6.85
2023-05-05T22:33:48.468Z,5.82
2023-05-05T22:36:20.148Z,6.18
2023-05-05T22:38:54.592Z,8.02
2023-05-05T22:41:26.293Z,7.15
2023-05-05T22:43:58.001Z,6.40
2023-05-05T22:46:29.840Z,5.07
2023-05-05T22:49:04.701Z,5.55
2023-05-05T22:51:36.363Z,7.88
2023-05-05T22:54:08.004Z,6.20
2023-05-05T22:56:42.821Z,9.95
2023-05-05T22:59:14.604Z,4.75
2023-05-05T23:01:46.395Z,5.72
2023-05-05T23:04:18.244Z,4.95
2023-05-05T23:06:49.919Z,4.72
2023-05-05T23:09:21.607Z,4.80
2023-05-05T23:11:53.324Z,6.65
2023-05-05T23:14:24.930Z,6.57
2023-05-05T23:16:59.602Z,5.05
2023-05-05T23:19:32.622Z,4.57
2023-05-05T23:22:07.004Z,5.90
2023-05-05T23:24:38.616Z,3.47
2023-05-05T23:27:10.253Z,3.33
2023-05-05T23:29:44.996Z,4.80
2023-05-05T23:32:16.572Z,2.88
2023-05-05T23:34:51.043Z,3.53
2023-05-05T23:37:23.034Z,2.55
2023-05-05T23:39:54.705Z,4.20
2023-05-05T23:42:29.243Z,3.63
2023-05-05T23:45:03.286Z,3.30
2023-05-05T23:47:36.834Z,4.38
2023-05-05T23:50:09.316Z,4.63
2023-05-05T23:52:41.845Z,4.38
2023-05-05T23:55:14.408Z,5.82
2023-05-05T23:57:45.988Z,4.45
